sensor_id;sensor_type;location;lat;lon;timestamp;P1;durP1;ratioP1;P2;durP2;ratioP2
4565;SDS011;2295;51.050;14.608;2022-07-01T00:01:41;19.93;;;13.20;;
4565;SDS011;2295;51.050;14.608;2022-07-01T00:04:10;18.63;;;12.87;;
4565;SDS011;2295;51.050;14.608;2022-07-01T00:06:39;16.10;;;12.47;;
4565;SDS011;2295;51.050;14.608;2022-07-01T00:09:07;19.57;;;13.00;;
4565;SDS011;2295;51.050;14.608;2022-07-01T00:11:35;25.23;;;13.30;;
4565;SDS011;2295;51.050;14.608;2022-07-01T00:14:05;20.87;;;13.80;;
4565;SDS011;2295;51.050;14.608;2022-07-01T00:16:33;18.10;;;13.00;;
4565;SDS011;2295;51.050;14.608;2022-07-01T00:19:02;25.33;;;14.60;;
4565;SDS011;2295;51.050;14.608;2022-07-01T00:21:30;21.03;;;13.87;;
4565;SDS011;2295;51.050;14.608;2022-07-01T00:23:59;28.30;;;12.10;;
4565;SDS011;2295;51.050;14.608;2022-07-01T00:26:27;22.93;;;12.70;;
4565;SDS011;2295;51.050;14.608;2022-07-01T00:28:55;25.80;;;13.73;;
4565;SDS011;2295;51.050;14.608;2022-07-01T00:31:25;24.97;;;13.30;;
4565;SDS011;2295;51.050;14.608;2022-07-01T00:33:53;22.60;;;13.73;;
4565;SDS011;2295;51.050;14.608;2022-07-01T00:36:21;27.50;;;12.73;;
4565;SDS011;2295;51.050;14.608;2022-07-01T00:38:55;18.67;;;13.33;;
4565;SDS011;2295;51.050;14.608;2022-07-01T00:41:23;18.60;;;13.70;;
4565;SDS011;2295;51.050;14.608;2022-07-01T00:43:52;21.30;;;12.87;;
4565;SDS011;2295;51.050;14.608;2022-07-01T00:46:21;24.73;;;14.67;;
4565;SDS011;2295;51.050;14.608;2022-07-01T00:48:54;20.07;;;14.27;;
4565;SDS011;2295;51.050;14.608;2022-07-01T00:51:24;23.37;;;13.50;;
4565;SDS011;2295;51.050;14.608;2022-07-01T00:53:52;24.43;;;14.10;;
4565;SDS011;2295;51.050;14.608;2022-07-01T00:56:21;18.67;;;13.90;;
4565;SDS011;2295;51.050;14.608;2022-07-01T00:58:49;19.67;;;14.33;;
4565;SDS011;2295;51.050;14.608;2022-07-01T01:01:17;19.03;;;13.40;;
4565;SDS011;2295;51.050;14.608;2022-07-01T01:03:47;19.87;;;12.50;;
4565;SDS011;2295;51.050;14.608;2022-07-01T01:06:17;21.83;;;13.00;;
4565;SDS011;2295;51.050;14.608;2022-07-01T01:08:46;26.13;;;14.60;;
4565;SDS011;2295;51.050;14.608;2022-07-01T01:11:15;19.67;;;14.00;;
4565;SDS011;2295;51.050;14.608;2022-07-01T01:13:44;19.33;;;14.30;;
4565;SDS011;2295;51.050;14.608;2022-07-01T01:16:15;16.97;;;12.80;;
4565;SDS011;2295;51.050;14.608;2022-07-01T01:18:47;20.20;;;13.33;;
4565;SDS011;2295;51.050;14.608;2022-07-01T01:21:18;20.50;;;13.27;;
4565;SDS011;2295;51.050;14.608;2022-07-01T01:23:46;24.07;;;14.90;;
4565;SDS011;2295;51.050;14.608;2022-07-01T01:26:15;22.07;;;14.47;;
4565;SDS011;2295;51.050;14.608;2022-07-01T01:28:45;22.80;;;15.37;;
4565;SDS011;2295;51.050;14.608;2022-07-01T01:31:13;28.50;;;16.00;;
4565;SDS011;2295;51.050;14.608;2022-07-01T01:33:42;21.63;;;15.60;;
4565;SDS011;2295;51.050;14.608;2022-07-01T01:36:10;27.97;;;15.50;;
4565;SDS011;2295;51.050;14.608;2022-07-01T01:38:40;18.70;;;15.07;;
4565;SDS011;2295;51.050;14.608;2022-07-01T01:41:08;30.03;;;15.03;;
4565;SDS011;2295;51.050;14.608;2022-07-01T01:43:36;26.33;;;15.00;;
4565;SDS011;2295;51.050;14.608;2022-07-01T01:46:05;22.03;;;14.83;;
4565;SDS011;2295;51.050;14.608;2022-07-01T01:48:33;23.13;;;15.20;;
4565;SDS011;2295;51.050;14.608;2022-07-01T01:51:01;26.33;;;16.20;;
4565;SDS011;2295;51.050;14.608;2022-07-01T01:53:30;27.70;;;15.73;;
4565;SDS011;2295;51.050;14.608;2022-07-01T01:55:59;20.97;;;14.40;;
4565;SDS011;2295;51.050;14.608;2022-07-01T01:58:28;23.40;;;15.53;;
4565;SDS011;2295;51.050;14.608;2022-07-01T02:00:56;22.33;;;15.20;;
4565;SDS011;2295;51.050;14.608;2022-07-01T02:03:24;16.83;;;14.10;;
4565;SDS011;2295;51.050;14.608;2022-07-01T02:05:52;31.33;;;15.10;;
4565;SDS011;2295;51.050;14.608;2022-07-01T02:08:21;22.90;;;13.60;;
4565;SDS011;2295;51.050;14.608;2022-07-01T02:10:49;26.57;;;14.57;;
4565;SDS011;2295;51.050;14.608;2022-07-01T02:13:21;21.90;;;13.60;;
4565;SDS011;2295;51.050;14.608;2022-07-01T02:15:49;20.80;;;13.00;;
4565;SDS011;2295;51.050;14.608;2022-07-01T02:18:18;22.40;;;13.20;;
4565;SDS011;2295;51.050;14.608;2022-07-01T02:20:46;23.50;;;14.10;;
4565;SDS011;2295;51.050;14.608;2022-07-01T02:23:14;22.33;;;14.23;;
4565;SDS011;2295;51.050;14.608;2022-07-01T02:25:42;21.30;;;14.23;;
4565;SDS011;2295;51.050;14.608;2022-07-01T02:28:12;30.73;;;15.40;;
4565;SDS011;2295;51.050;14.608;2022-07-01T02:30:41;21.07;;;15.90;;
4565;SDS011;2295;51.050;14.608;2022-07-01T02:33:10;25.63;;;15.40;;
4565;SDS011;2295;51.050;14.608;2022-07-01T02:35:39;25.00;;;15.60;;
4565;SDS011;2295;51.050;14.608;2022-07-01T02:38:14;28.70;;;15.50;;
4565;SDS011;2295;51.050;14.608;2022-07-01T02:40:42;30.03;;;15.30;;
4565;SDS011;2295;51.050;14.608;2022-07-01T02:43:11;25.17;;;14.33;;
4565;SDS011;2295;51.050;14.608;2022-07-01T02:45:40;29.43;;;14.73;;
4565;SDS011;2295;51.050;14.608;2022-07-01T02:48:09;21.00;;;14.23;;
4565;SDS011;2295;51.050;14.608;2022-07-01T02:50:38;26.13;;;14.17;;
4565;SDS011;2295;51.050;14.608;2022-07-01T02:53:06;24.23;;;14.87;;
4565;SDS011;2295;51.050;14.608;2022-07-01T02:55:34;28.70;;;14.63;;
4565;SDS011;2295;51.050;14.608;2022-07-01T02:58:02;21.80;;;14.73;;
4565;SDS011;2295;51.050;14.608;2022-07-01T03:00:30;24.20;;;14.80;;
4565;SDS011;2295;51.050;14.608;2022-07-01T03:03:00;20.77;;;13.97;;
4565;SDS011;2295;51.050;14.608;2022-07-01T03:05:28;21.87;;;13.20;;
4565;SDS011;2295;51.050;14.608;2022-07-01T03:07:57;19.77;;;13.53;;
4565;SDS011;2295;51.050;14.608;2022-07-01T03:10:25;29.63;;;15.30;;
4565;SDS011;2295;51.050;14.608;2022-07-01T03:12:54;23.47;;;14.77;;
4565;SDS011;2295;51.050;14.608;2022-07-01T03:15:24;20.80;;;14.70;;
4565;SDS011;2295;51.050;14.608;2022-07-01T03:17:53;25.75;;;16.38;;
4565;SDS011;2295;51.050;14.608;2022-07-01T03:20:23;29.03;;;15.80;;
4565;SDS011;2295;51.050;14.608;2022-07-01T03:22:51;24.50;;;14.70;;
4565;SDS011;2295;51.050;14.608;2022-07-01T03:25:20;35.37;;;14.60;;
4565;SDS011;2295;51.050;14.608;2022-07-01T03:27:48;29.20;;;16.00;;
4565;SDS011;2295;51.050;14.608;2022-07-01T03:30:17;31.00;;;14.00;;
4565;SDS011;2295;51.050;14.608;2022-07-01T03:32:45;29.93;;;14.57;;
4565;SDS011;2295;51.050;14.608;2022-07-01T03:35:14;26.43;;;15.00;;
4565;SDS011;2295;51.050;14.608;2022-07-01T03:38:01;25.90;;;14.53;;
4565;SDS011;2295;51.050;14.608;2022-07-01T03:40:30;26.60;;;14.43;;
4565;SDS011;2295;51.050;14.608;2022-07-01T03:42:59;21.33;;;13.43;;
4565;SDS011;2295;51.050;14.608;2022-07-01T03:45:27;28.27;;;14.80;;
4565;SDS011;2295;51.050;14.608;2022-07-01T03:47:56;38.10;;;14.50;;
4565;SDS011;2295;51.050;14.608;2022-07-01T03:50:24;27.67;;;14.53;;
4565;SDS011;2295;51.050;14.608;2022-07-01T03:52:53;21.67;;;14.03;;
4565;SDS011;2295;51.050;14.608;2022-07-01T03:55:36;49.37;;;14.30;;
4565;SDS011;2295;51.050;14.608;2022-07-01T03:58:05;26.87;;;13.97;;
4565;SDS011;2295;51.050;14.608;2022-07-01T04:00:34;20.93;;;14.77;;
4565;SDS011;2295;51.050;14.608;2022-07-01T04:03:03;27.10;;;16.30;;
4565;SDS011;2295;51.050;14.608;2022-07-01T04:05:32;33.70;;;17.33;;
4565;SDS011;2295;51.050;14.608;2022-07-01T04:08:01;27.73;;;14.33;;
4565;SDS011;2295;51.050;14.608;2022-07-01T04:10:30;29.10;;;14.93;;
4565;SDS011;2295;51.050;14.608;2022-07-01T04:13:01;22.30;;;14.50;;
4565;SDS011;2295;51.050;14.608;2022-07-01T04:15:50;26.00;;;14.53;;
4565;SDS011;2295;51.050;14.608;2022-07-01T04:18:18;19.80;;;12.87;;
4565;SDS011;2295;51.050;14.608;2022-07-01T04:20:47;27.73;;;14.20;;
4565;SDS011;2295;51.050;14.608;2022-07-01T04:23:29;24.03;;;14.27;;
4565;SDS011;2295;51.050;14.608;2022-07-01T04:26:00;25.70;;;13.80;;
4565;SDS011;2295;51.050;14.608;2022-07-01T04:28:49;24.17;;;14.20;;
4565;SDS011;2295;51.050;14.608;2022-07-01T04:31:18;26.20;;;14.30;;
4565;SDS011;2295;51.050;14.608;2022-07-01T04:33:47;23.30;;;14.40;;
4565;SDS011;2295;51.050;14.608;2022-07-01T04:36:15;22.30;;;14.70;;
4565;SDS011;2295;51.050;14.608;2022-07-01T04:38:44;20.23;;;14.30;;
4565;SDS011;2295;51.050;14.608;2022-07-01T04:41:12;26.30;;;14.40;;
4565;SDS011;2295;51.050;14.608;2022-07-01T04:44:00;22.57;;;14.13;;
4565;SDS011;2295;51.050;14.608;2022-07-01T04:46:28;18.73;;;14.40;;
4565;SDS011;2295;51.050;14.608;2022-07-01T04:48:57;24.13;;;14.00;;
4565;SDS011;2295;51.050;14.608;2022-07-01T04:51:25;26.40;;;14.10;;
4565;SDS011;2295;51.050;14.608;2022-07-01T04:53:54;22.50;;;13.40;;
4565;SDS011;2295;51.050;14.608;2022-07-01T04:56:23;18.03;;;13.30;;
4565;SDS011;2295;51.050;14.608;2022-07-01T04:58:53;27.13;;;13.40;;
4565;SDS011;2295;51.050;14.608;2022-07-01T05:01:23;19.63;;;12.13;;
4565;SDS011;2295;51.050;14.608;2022-07-01T05:03:51;14.23;;;11.20;;
4565;SDS011;2295;51.050;14.608;2022-07-01T05:06:20;18.90;;;10.70;;
4565;SDS011;2295;51.050;14.608;2022-07-01T05:08:48;19.20;;;11.87;;
4565;SDS011;2295;51.050;14.608;2022-07-01T05:11:16;20.23;;;11.80;;
4565;SDS011;2295;51.050;14.608;2022-07-01T05:13:44;29.50;;;15.30;;
4565;SDS011;2295;51.050;14.608;2022-07-01T05:16:13;37.27;;;16.60;;
4565;SDS011;2295;51.050;14.608;2022-07-01T05:18:42;65.47;;;23.20;;
4565;SDS011;2295;51.050;14.608;2022-07-01T05:21:28;32.97;;;15.23;;
4565;SDS011;2295;51.050;14.608;2022-07-01T05:24:14;14.93;;;10.30;;
4565;SDS011;2295;51.050;14.608;2022-07-01T05:26:43;13.40;;;9.03;;
4565;SDS011;2295;51.050;14.608;2022-07-01T05:29:11;13.97;;;8.57;;
4565;SDS011;2295;51.050;14.608;2022-07-01T05:31:39;12.83;;;8.40;;
4565;SDS011;2295;51.050;14.608;2022-07-01T05:34:09;10.17;;;7.63;;
4565;SDS011;2295;51.050;14.608;2022-07-01T05:36:37;9.87;;;7.40;;
4565;SDS011;2295;51.050;14.608;2022-07-01T05:39:05;7.70;;;7.00;;
4565;SDS011;2295;51.050;14.608;2022-07-01T05:41:34;7.27;;;5.67;;
4565;SDS011;2295;51.050;14.608;2022-07-01T05:44:03;9.10;;;6.70;;
4565;SDS011;2295;51.050;14.608;2022-07-01T05:46:31;7.03;;;6.53;;
4565;SDS011;2295;51.050;14.608;2022-07-01T05:49:00;7.97;;;6.20;;
4565;SDS011;2295;51.050;14.608;2022-07-01T05:51:29;8.10;;;6.37;;
4565;SDS011;2295;51.050;14.608;2022-07-01T05:53:57;7.30;;;5.80;;
4565;SDS011;2295;51.050;14.608;2022-07-01T05:56:26;5.53;;;5.23;;
4565;SDS011;2295;51.050;14.608;2022-07-01T05:58:54;8.40;;;5.70;;
4565;SDS011;2295;51.050;14.608;2022-07-01T06:01:22;7.37;;;5.87;;
4565;SDS011;2295;51.050;14.608;2022-07-01T06:03:50;6.17;;;5.10;;
4565;SDS011;2295;51.050;14.608;2022-07-01T06:06:19;5.23;;;4.73;;
4565;SDS011;2295;51.050;14.608;2022-07-01T06:08:48;5.07;;;4.60;;
4565;SDS011;2295;51.050;14.608;2022-07-01T06:11:16;4.87;;;4.37;;
4565;SDS011;2295;51.050;14.608;2022-07-01T06:13:44;5.17;;;4.80;;
4565;SDS011;2295;51.050;14.608;2022-07-01T06:16:13;7.73;;;4.30;;
4565;SDS011;2295;51.050;14.608;2022-07-01T06:18:41;4.87;;;4.33;;
4565;SDS011;2295;51.050;14.608;2022-07-01T06:21:09;7.30;;;4.77;;
4565;SDS011;2295;51.050;14.608;2022-07-01T06:23:37;5.63;;;4.70;;
4565;SDS011;2295;51.050;14.608;2022-07-01T06:26:07;7.03;;;5.27;;
4565;SDS011;2295;51.050;14.608;2022-07-01T06:28:35;6.50;;;4.87;;
4565;SDS011;2295;51.050;14.608;2022-07-01T06:31:03;5.63;;;5.13;;
4565;SDS011;2295;51.050;14.608;2022-07-01T06:33:32;9.77;;;6.43;;
4565;SDS011;2295;51.050;14.608;2022-07-01T06:36:00;10.10;;;5.47;;
4565;SDS011;2295;51.050;14.608;2022-07-01T06:38:28;6.27;;;5.60;;
4565;SDS011;2295;51.050;14.608;2022-07-01T06:40:56;8.43;;;5.10;;
4565;SDS011;2295;51.050;14.608;2022-07-01T06:43:44;6.20;;;5.40;;
4565;SDS011;2295;51.050;14.608;2022-07-01T06:46:12;6.00;;;5.17;;
4565;SDS011;2295;51.050;14.608;2022-07-01T06:48:40;12.77;;;5.50;;
4565;SDS011;2295;51.050;14.608;2022-07-01T06:51:08;8.93;;;5.77;;
4565;SDS011;2295;51.050;14.608;2022-07-01T06:53:36;15.57;;;6.10;;
4565;SDS011;2295;51.050;14.608;2022-07-01T06:56:05;6.80;;;5.00;;
4565;SDS011;2295;51.050;14.608;2022-07-01T06:58:33;8.93;;;5.63;;
4565;SDS011;2295;51.050;14.608;2022-07-01T07:01:03;5.60;;;5.10;;
4565;SDS011;2295;51.050;14.608;2022-07-01T07:03:32;6.37;;;5.30;;
4565;SDS011;2295;51.050;14.608;2022-07-01T07:06:00;7.20;;;5.83;;
4565;SDS011;2295;51.050;14.608;2022-07-01T07:08:29;9.30;;;5.13;;
4565;SDS011;2295;51.050;14.608;2022-07-01T07:10:59;5.57;;;5.07;;
4565;SDS011;2295;51.050;14.608;2022-07-01T07:13:27;10.10;;;5.10;;
4565;SDS011;2295;51.050;14.608;2022-07-01T07:15:55;5.70;;;5.20;;
4565;SDS011;2295;51.050;14.608;2022-07-01T07:18:25;6.53;;;4.87;;
4565;SDS011;2295;51.050;14.608;2022-07-01T07:20:53;5.40;;;5.00;;
4565;SDS011;2295;51.050;14.608;2022-07-01T07:23:25;10.30;;;4.60;;
4565;SDS011;2295;51.050;14.608;2022-07-01T07:25:54;5.27;;;4.87;;
4565;SDS011;2295;51.050;14.608;2022-07-01T07:28:22;9.37;;;5.70;;
4565;SDS011;2295;51.050;14.608;2022-07-01T07:30:51;8.00;;;4.90;;
4565;SDS011;2295;51.050;14.608;2022-07-01T07:33:19;6.93;;;4.80;;
4565;SDS011;2295;51.050;14.608;2022-07-01T07:35:49;9.63;;;5.87;;
4565;SDS011;2295;51.050;14.608;2022-07-01T07:38:17;6.80;;;5.77;;
4565;SDS011;2295;51.050;14.608;2022-07-01T07:40:45;7.93;;;5.90;;
4565;SDS011;2295;51.050;14.608;2022-07-01T07:43:13;7.70;;;5.63;;
4565;SDS011;2295;51.050;14.608;2022-07-01T07:45:42;7.73;;;6.10;;
4565;SDS011;2295;51.050;14.608;2022-07-01T07:48:10;11.67;;;6.03;;
4565;SDS011;2295;51.050;14.608;2022-07-01T07:50:38;6.97;;;6.37;;
4565;SDS011;2295;51.050;14.608;2022-07-01T07:53:08;6.97;;;5.30;;
4565;SDS011;2295;51.050;14.608;2022-07-01T07:55:38;6.77;;;5.93;;
4565;SDS011;2295;51.050;14.608;2022-07-01T07:58:06;12.87;;;6.43;;
4565;SDS011;2295;51.050;14.608;2022-07-01T08:00:35;7.03;;;6.30;;
4565;SDS011;2295;51.050;14.608;2022-07-01T08:03:05;12.13;;;6.80;;
4565;SDS011;2295;51.050;14.608;2022-07-01T08:05:34;6.40;;;5.03;;
4565;SDS011;2295;51.050;14.608;2022-07-01T08:08:02;9.43;;;6.20;;
4565;SDS011;2295;51.050;14.608;2022-07-01T08:10:33;19.27;;;6.50;;
4565;SDS011;2295;51.050;14.608;2022-07-01T08:13:01;13.83;;;6.43;;
4565;SDS011;2295;51.050;14.608;2022-07-01T08:15:31;9.13;;;6.20;;
4565;SDS011;2295;51.050;14.608;2022-07-01T08:17:59;34.87;;;7.57;;
4565;SDS011;2295;51.050;14.608;2022-07-01T08:20:28;9.27;;;6.20;;
4565;SDS011;2295;51.050;14.608;2022-07-01T08:22:56;8.97;;;5.80;;
4565;SDS011;2295;51.050;14.608;2022-07-01T08:25:24;8.30;;;7.40;;
4565;SDS011;2295;51.050;14.608;2022-07-01T08:28:01;16.40;;;7.10;;
4565;SDS011;2295;51.050;14.608;2022-07-01T08:30:30;9.10;;;7.40;;
4565;SDS011;2295;51.050;14.608;2022-07-01T08:32:58;14.00;;;7.37;;
4565;SDS011;2295;51.050;14.608;2022-07-01T08:35:27;7.77;;;7.07;;
4565;SDS011;2295;51.050;14.608;2022-07-01T08:37:56;15.43;;;8.97;;
4565;SDS011;2295;51.050;14.608;2022-07-01T08:40:25;15.67;;;9.83;;
4565;SDS011;2295;51.050;14.608;2022-07-01T08:42:57;18.63;;;10.50;;
4565;SDS011;2295;51.050;14.608;2022-07-01T08:45:28;12.90;;;11.70;;
4565;SDS011;2295;51.050;14.608;2022-07-01T08:47:58;18.93;;;12.17;;
4565;SDS011;2295;51.050;14.608;2022-07-01T08:50:28;13.90;;;12.50;;
4565;SDS011;2295;51.050;14.608;2022-07-01T08:52:58;20.60;;;14.07;;
4565;SDS011;2295;51.050;14.608;2022-07-01T08:55:27;23.70;;;14.90;;
4565;SDS011;2295;51.050;14.608;2022-07-01T08:57:55;18.70;;;14.00;;
4565;SDS011;2295;51.050;14.608;2022-07-01T09:00:30;22.33;;;14.93;;
4565;SDS011;2295;51.050;14.608;2022-07-01T09:03:00;18.70;;;14.50;;
4565;SDS011;2295;51.050;14.608;2022-07-01T09:05:30;20.30;;;14.43;;
4565;SDS011;2295;51.050;14.608;2022-07-01T09:07:59;19.63;;;13.43;;
4565;SDS011;2295;51.050;14.608;2022-07-01T09:10:29;16.13;;;13.73;;
4565;SDS011;2295;51.050;14.608;2022-07-01T09:13:03;17.93;;;13.10;;
4565;SDS011;2295;51.050;14.608;2022-07-01T09:15:36;16.97;;;13.07;;
4565;SDS011;2295;51.050;14.608;2022-07-01T09:18:05;21.63;;;13.90;;
4565;SDS011;2295;51.050;14.608;2022-07-01T09:20:39;17.60;;;12.67;;
4565;SDS011;2295;51.050;14.608;2022-07-01T09:23:08;21.00;;;14.47;;
4565;SDS011;2295;51.050;14.608;2022-07-01T09:25:39;19.23;;;13.90;;
4565;SDS011;2295;51.050;14.608;2022-07-01T09:28:19;20.20;;;14.80;;
4565;SDS011;2295;51.050;14.608;2022-07-01T09:30:50;22.50;;;14.87;;
4565;SDS011;2295;51.050;14.608;2022-07-01T09:33:21;19.83;;;15.57;;
4565;SDS011;2295;51.050;14.608;2022-07-01T09:35:50;26.90;;;16.00;;
4565;SDS011;2295;51.050;14.608;2022-07-01T09:38:20;22.83;;;16.60;;
4565;SDS011;2295;51.050;14.608;2022-07-01T09:40:59;31.13;;;17.03;;
4565;SDS011;2295;51.050;14.608;2022-07-01T09:43:28;21.20;;;16.00;;
4565;SDS011;2295;51.050;14.608;2022-07-01T09:46:00;27.30;;;16.10;;
4565;SDS011;2295;51.050;14.608;2022-07-01T09:51:14;24.97;;;15.30;;
4565;SDS011;2295;51.050;14.608;2022-07-01T09:53:43;25.80;;;16.40;;
4565;SDS011;2295;51.050;14.608;2022-07-01T09:56:11;21.67;;;15.07;;
4565;SDS011;2295;51.050;14.608;2022-07-01T09:58:41;31.33;;;18.50;;
4565;SDS011;2295;51.050;14.608;2022-07-01T10:01:12;24.03;;;17.10;;
4565;SDS011;2295;51.050;14.608;2022-07-01T10:03:42;30.07;;;18.73;;
4565;SDS011;2295;51.050;14.608;2022-07-01T10:09:16;25.47;;;17.63;;
4565;SDS011;2295;51.050;14.608;2022-07-01T10:12:08;22.33;;;17.37;;
4565;SDS011;2295;51.050;14.608;2022-07-01T10:15:01;26.00;;;15.20;;
4565;SDS011;2295;51.050;14.608;2022-07-01T10:17:34;22.90;;;16.30;;
4565;SDS011;2295;51.050;14.608;2022-07-01T10:20:08;22.67;;;15.23;;
4565;SDS011;2295;51.050;14.608;2022-07-01T10:22:39;22.27;;;17.40;;
4565;SDS011;2295;51.050;14.608;2022-07-01T10:31:02;29.10;;;17.43;;
4565;SDS011;2295;51.050;14.608;2022-07-01T10:33:37;26.23;;;17.00;;
4565;SDS011;2295;51.050;14.608;2022-07-01T10:36:09;21.73;;;17.13;;
4565;SDS011;2295;51.050;14.608;2022-07-01T10:41:40;29.87;;;18.27;;
4565;SDS011;2295;51.050;14.608;2022-07-01T10:44:10;28.03;;;18.80;;
4565;SDS011;2295;51.050;14.608;2022-07-01T10:46:43;33.50;;;20.90;;
4565;SDS011;2295;51.050;14.608;2022-07-01T10:49:16;29.80;;;20.33;;
4565;SDS011;2295;51.050;14.608;2022-07-01T10:51:46;37.87;;;21.40;;
4565;SDS011;2295;51.050;14.608;2022-07-01T10:57:19;36.00;;;22.50;;
4565;SDS011;2295;51.050;14.608;2022-07-01T10:59:50;47.57;;;24.37;;
4565;SDS011;2295;51.050;14.608;2022-07-01T11:02:20;40.67;;;23.07;;
4565;SDS011;2295;51.050;14.608;2022-07-01T11:04:51;34.80;;;21.13;;
4565;SDS011;2295;51.050;14.608;2022-07-01T11:07:23;41.23;;;21.87;;
4565;SDS011;2295;51.050;14.608;2022-07-01T11:09:52;35.33;;;21.63;;
4565;SDS011;2295;51.050;14.608;2022-07-01T11:12:21;36.13;;;22.70;;
4565;SDS011;2295;51.050;14.608;2022-07-01T11:14:50;34.47;;;20.10;;
4565;SDS011;2295;51.050;14.608;2022-07-01T11:17:19;31.67;;;21.03;;
4565;SDS011;2295;51.050;14.608;2022-07-01T11:19:49;30.60;;;19.80;;
4565;SDS011;2295;51.050;14.608;2022-07-01T11:22:19;27.30;;;18.80;;
4565;SDS011;2295;51.050;14.608;2022-07-01T11:24:51;25.43;;;17.63;;
4565;SDS011;2295;51.050;14.608;2022-07-01T11:27:19;22.87;;;17.10;;
4565;SDS011;2295;51.050;14.608;2022-07-01T11:29:50;22.07;;;15.00;;
4565;SDS011;2295;51.050;14.608;2022-07-01T11:32:29;19.90;;;15.17;;
4565;SDS011;2295;51.050;14.608;2022-07-01T11:35:00;23.67;;;16.07;;
4565;SDS011;2295;51.050;14.608;2022-07-01T11:37:30;22.90;;;16.23;;
4565;SDS011;2295;51.050;14.608;2022-07-01T11:40:17;23.70;;;15.87;;
4565;SDS011;2295;51.050;14.608;2022-07-01T11:42:46;22.20;;;15.77;;
4565;SDS011;2295;51.050;14.608;2022-07-01T11:45:21;22.60;;;13.70;;
4565;SDS011;2295;51.050;14.608;2022-07-01T11:47:50;21.30;;;13.37;;
4565;SDS011;2295;51.050;14.608;2022-07-01T11:50:20;18.03;;;13.17;;
4565;SDS011;2295;51.050;14.608;2022-07-01T11:52:48;14.20;;;11.60;;
4565;SDS011;2295;51.050;14.608;2022-07-01T11:55:20;18.20;;;11.37;;
4565;SDS011;2295;51.050;14.608;2022-07-01T11:58:04;15.20;;;10.83;;
4565;SDS011;2295;51.050;14.608;2022-07-01T12:00:33;16.20;;;9.90;;
4565;SDS011;2295;51.050;14.608;2022-07-01T12:03:01;11.13;;;10.00;;
4565;SDS011;2295;51.050;14.608;2022-07-01T12:05:31;11.10;;;9.70;;
4565;SDS011;2295;51.050;14.608;2022-07-01T12:08:03;19.43;;;9.77;;
4565;SDS011;2295;51.050;14.608;2022-07-01T12:10:32;11.30;;;10.10;;
4565;SDS011;2295;51.050;14.608;2022-07-01T12:15:50;9.90;;;8.47;;
4565;SDS011;2295;51.050;14.608;2022-07-01T12:18:18;10.50;;;7.87;;
4565;SDS011;2295;51.050;14.608;2022-07-01T12:20:49;9.93;;;8.50;;
4565;SDS011;2295;51.050;14.608;2022-07-01T12:23:17;13.10;;;9.47;;
4565;SDS011;2295;51.050;14.608;2022-07-01T12:25:46;9.80;;;7.90;;
4565;SDS011;2295;51.050;14.608;2022-07-01T12:28:25;17.90;;;9.07;;
4565;SDS011;2295;51.050;14.608;2022-07-01T12:30:58;13.00;;;9.60;;
4565;SDS011;2295;51.050;14.608;2022-07-01T12:33:28;13.60;;;10.60;;
4565;SDS011;2295;51.050;14.608;2022-07-01T12:35:57;13.80;;;10.17;;
4565;SDS011;2295;51.050;14.608;2022-07-01T12:38:28;13.03;;;10.37;;
4565;SDS011;2295;51.050;14.608;2022-07-01T12:40:57;14.50;;;11.23;;
4565;SDS011;2295;51.050;14.608;2022-07-01T12:43:27;15.30;;;10.90;;
4565;SDS011;2295;51.050;14.608;2022-07-01T12:45:58;12.43;;;10.93;;
4565;SDS011;2295;51.050;14.608;2022-07-01T12:48:27;14.07;;;12.00;;
4565;SDS011;2295;51.050;14.608;2022-07-01T12:50:58;18.70;;;10.90;;
4565;SDS011;2295;51.050;14.608;2022-07-01T12:53:27;14.50;;;11.67;;
4565;SDS011;2295;51.050;14.608;2022-07-01T12:55:57;13.80;;;11.33;;
4565;SDS011;2295;51.050;14.608;2022-07-01T12:58:27;14.57;;;9.93;;
4565;SDS011;2295;51.050;14.608;2022-07-01T13:00:56;13.40;;;11.67;;
4565;SDS011;2295;51.050;14.608;2022-07-01T13:03:27;13.43;;;11.13;;
4565;SDS011;2295;51.050;14.608;2022-07-01T13:06:00;13.10;;;11.63;;
4565;SDS011;2295;51.050;14.608;2022-07-01T13:08:29;13.40;;;12.00;;
4565;SDS011;2295;51.050;14.608;2022-07-01T13:10:57;17.70;;;11.47;;
4565;SDS011;2295;51.050;14.608;2022-07-01T13:13:26;13.30;;;11.73;;
4565;SDS011;2295;51.050;14.608;2022-07-01T13:15:54;14.03;;;12.60;;
4565;SDS011;2295;51.050;14.608;2022-07-01T13:18:22;15.40;;;12.53;;
4565;SDS011;2295;51.050;14.608;2022-07-01T13:20:51;16.20;;;12.17;;
4565;SDS011;2295;51.050;14.608;2022-07-01T13:23:20;19.90;;;11.63;;
4565;SDS011;2295;51.050;14.608;2022-07-01T13:25:49;13.93;;;12.10;;
4565;SDS011;2295;51.050;14.608;2022-07-01T13:28:17;14.43;;;12.90;;
4565;SDS011;2295;51.050;14.608;2022-07-01T13:30:46;15.63;;;12.97;;
4565;SDS011;2295;51.050;14.608;2022-07-01T13:33:14;13.80;;;12.50;;
4565;SDS011;2295;51.050;14.608;2022-07-01T13:35:43;13.07;;;11.87;;
4565;SDS011;2295;51.050;14.608;2022-07-01T13:38:12;14.90;;;13.30;;
4565;SDS011;2295;51.050;14.608;2022-07-01T13:40:41;15.30;;;13.23;;
4565;SDS011;2295;51.050;14.608;2022-07-01T13:43:12;35.37;;;13.83;;
4565;SDS011;2295;51.050;14.608;2022-07-01T13:45:42;14.03;;;12.60;;
4565;SDS011;2295;51.050;14.608;2022-07-01T13:48:10;18.80;;;12.60;;
4565;SDS011;2295;51.050;14.608;2022-07-01T13:50:39;13.90;;;12.50;;
4565;SDS011;2295;51.050;14.608;2022-07-01T13:53:07;14.13;;;12.77;;
4565;SDS011;2295;51.050;14.608;2022-07-01T13:55:35;11.27;;;10.27;;
4565;SDS011;2295;51.050;14.608;2022-07-01T13:58:04;11.70;;;10.50;;
4565;SDS011;2295;51.050;14.608;2022-07-01T14:00:33;10.47;;;9.57;;
4565;SDS011;2295;51.050;14.608;2022-07-01T14:03:01;11.70;;;10.50;;
4565;SDS011;2295;51.050;14.608;2022-07-01T14:05:29;13.87;;;10.13;;
4565;SDS011;2295;51.050;14.608;2022-07-01T14:07:58;10.30;;;9.30;;
4565;SDS011;2295;51.050;14.608;2022-07-01T14:10:26;9.00;;;8.20;;
4565;SDS011;2295;51.050;14.608;2022-07-01T14:12:54;7.10;;;6.60;;
4565;SDS011;2295;51.050;14.608;2022-07-01T14:15:24;5.00;;;4.70;;
4565;SDS011;2295;51.050;14.608;2022-07-01T14:17:52;7.40;;;4.10;;
4565;SDS011;2295;51.050;14.608;2022-07-01T14:20:20;4.63;;;4.23;;
4565;SDS011;2295;51.050;14.608;2022-07-01T14:22:49;5.10;;;3.60;;
4565;SDS011;2295;51.050;14.608;2022-07-01T14:25:20;3.93;;;3.60;;
4565;SDS011;2295;51.050;14.608;2022-07-01T14:27:49;3.20;;;3.00;;
4565;SDS011;2295;51.050;14.608;2022-07-01T14:30:17;3.10;;;3.00;;
4565;SDS011;2295;51.050;14.608;2022-07-01T14:32:47;2.60;;;2.50;;
4565;SDS011;2295;51.050;14.608;2022-07-01T14:35:15;4.20;;;2.90;;
4565;SDS011;2295;51.050;14.608;2022-07-01T14:37:43;4.33;;;2.97;;
4565;SDS011;2295;51.050;14.608;2022-07-01T14:40:11;3.60;;;3.30;;
4565;SDS011;2295;51.050;14.608;2022-07-01T14:42:40;3.80;;;3.43;;
4565;SDS011;2295;51.050;14.608;2022-07-01T14:45:08;3.87;;;3.57;;
4565;SDS011;2295;51.050;14.608;2022-07-01T14:47:41;2.87;;;2.60;;
4565;SDS011;2295;51.050;14.608;2022-07-01T14:50:11;3.47;;;3.13;;
4565;SDS011;2295;51.050;14.608;2022-07-01T14:52:39;4.47;;;3.50;;
4565;SDS011;2295;51.050;14.608;2022-07-01T14:55:08;4.20;;;3.90;;
4565;SDS011;2295;51.050;14.608;2022-07-01T14:57:36;4.50;;;4.10;;
4565;SDS011;2295;51.050;14.608;2022-07-01T15:00:05;4.13;;;3.83;;
4565;SDS011;2295;51.050;14.608;2022-07-01T15:02:35;5.80;;;5.30;;
4565;SDS011;2295;51.050;14.608;2022-07-01T15:05:05;7.83;;;5.80;;
4565;SDS011;2295;51.050;14.608;2022-07-01T15:07:35;6.37;;;5.70;;
4565;SDS011;2295;51.050;14.608;2022-07-01T15:10:04;9.52;;;6.57;;
4565;SDS011;2295;51.050;14.608;2022-07-01T15:12:32;8.33;;;7.53;;
4565;SDS011;2295;51.050;14.608;2022-07-01T15:15:00;9.68;;;8.63;;
4565;SDS011;2295;51.050;14.608;2022-07-01T15:17:29;10.30;;;8.32;;
4565;SDS011;2295;51.050;14.608;2022-07-01T15:19:57;11.05;;;9.30;;